Time;durP1;ratioP1;P1;durP2;ratioP2;P2;SDS_P1;SDS_P2;PMS_P1;PMS_P2;Temp;Humidity;BMP_temperature;BMP_pressure;BME280_temperature;BME280_humidity;BME280_pressure;Samples;Min_cycle;Max_cycle;Signal;HPM_P1;HPM_P2
2023/08/16 00:00:46;;;;;;;;;;;;;;;;;;5070356;28;1183;-56
2023/08/16 00:03:11;;;;;;;;;;;;;;;;;;5068777;28;5072;-56
2023/08/16 00:05:37;;;;;;;;;;;;;;;;;;5057260;28;5095;-56
2023/08/16 00:08:02;;;;;;;;;;;;;;;;;;5069462;28;6080;-56
2023/08/16 00:10:27;;;;;;;;;;;;;;;;;;5068743;28;5079;-56
2023/08/16 00:12:52;;;;;;;;;;;;;;;;;;5069328;28;1109;-57
2023/08/16 00:15:18;;;;;;;;;;;;;;;;;;5060320;28;5047;-57
2023/08/16 00:17:43;;;;;;;;;;;;;;;;;;5066550;28;5280;-56
2023/08/16 00:20:10;;;;;;;;;;;;;;;;;;5069437;28;5071;-56
2023/08/16 00:22:35;;;;;;;;;;;;;;;;;;5084880;28;4460;-56
2023/08/16 00:25:00;;;;;;;;;;;;;;;;;;5067954;28;1926;-56
2023/08/16 00:27:25;;;;;;;;;;;;;;;;;;5068519;28;5080;-57
2023/08/16 00:29:51;;;;;;;;;;;;;;;;;;5069086;28;4459;-56
2023/08/16 00:32:16;;;;;;;;;;;;;;;;;;5062683;28;5124;-56
2023/08/16 00:34:41;;;;;;;;;;;;;;;;;;5071384;28;5070;-56
2023/08/16 00:37:06;;;;;;;;;;;;;;;;;;5089411;28;1208;-56
2023/08/16 00:39:32;;;;;;;;;;;;;;;;;;5088793;28;5073;-56
2023/08/16 00:41:57;;;;;;;;;;;;;;;;;;5086568;28;5017;-56
2023/08/16 00:44:23;;;;;;;;;;;;;;;;;;5087197;28;4896;-56
2023/08/16 00:46:48;;;;;;;;;;;;;;;;;;5088826;28;5089;-57
2023/08/16 00:49:14;;;;;;;;;;;;;;;;;;5083513;28;1357;-56
2023/08/16 00:51:39;;;;;;;;;;;;;;;;;;5093618;28;4932;-57
2023/08/16 00:54:04;;;;;;;;;;;;;;;;;;5099816;28;5068;-56
2023/08/16 00:56:29;;;;;;;;;;;;;;;;;;5100037;28;5174;-56
2023/08/16 00:58:55;;;;;;;;;;;;;;;;;;5085226;28;4857;-56
2023/08/16 01:01:20;;;;;;;;;;;;;;;;;;5073938;28;5074;-56
2023/08/16 01:03:46;;;;;;;;;;;;;;;;;;5103621;28;1112;-56
2023/08/16 01:06:11;;;;;;;;;;;;;;;;;;5083286;28;5015;-56
2023/08/16 01:08:36;;;;;;;;;;;;;;;;;;5100161;28;5003;-56
2023/08/16 01:11:14;;;;;;;;;;;;;;;;;;5092006;28;4708;-56
2023/08/16 01:13:45;;;;;;;;;;;;;;;;;;5091206;28;5125;-56
2023/08/16 01:16:11;;;;;;;;;;;;;;;;;;5096958;28;1648;-56
2023/08/16 01:18:37;;;;;;;;;;;;;;;;;;5097814;28;5114;-56
2023/08/16 01:21:03;;;;;;;;;;;;;;;;;;5098379;28;5127;-56
2023/08/16 01:23:43;;;;;;;;;;;;;;;;;;5083912;28;4997;-56
2023/08/16 01:26:27;;;;;;;;;;;;;;;;;;5083755;28;4923;-56
2023/08/16 01:28:52;;;;;;;;;;;;;;;;;;5095075;28;5241;-56
2023/08/16 01:31:18;;;;;;;;;;;;;;;;;;5068704;28;5080;-57
2023/08/16 01:33:43;;;;;;;;;;;;;;;;;;5111045;27;1183;-56
2023/08/16 01:36:08;;;;;;;;;;;;;;;;;;5096886;28;4627;-56
2023/08/16 01:38:33;;;;;;;;;;;;;;;;;;5102799;28;4844;-56
2023/08/16 01:41:02;;;;;;;;;;;;;;;;;;5074768;28;5080;-56
2023/08/16 01:43:27;;;;;;;;;;;;;;;;;;5099294;28;5091;-56
2023/08/16 01:45:53;;;;;;;;;;;;;;;;;;5071025;28;1929;-56
2023/08/16 01:48:18;;;;;;;;;;;;;;;;;;5073425;28;4941;-57
2023/08/16 01:50:44;;;;;;;;;;;;;;;;;;5082328;28;5081;-56
2023/08/16 01:53:09;;;;;;;;;;;;;;;;;;5098896;28;5064;-56
2023/08/16 01:55:36;;;;;;;;;;;;;;;;;;5060300;28;5137;-57
2023/08/16 01:58:02;;;;;;;;;;;;;;;;;;5097405;28;1166;-56
2023/08/16 02:00:27;;;;;;;;;;;;;;;;;;5099996;28;4913;-57
2023/08/16 02:02:52;;;;;;;;;;;;;;;;;;5100662;28;5260;-57
2023/08/16 02:05:17;;;;;;;;;;;;;;;;;;5100900;28;5117;-56
2023/08/16 02:07:43;;;;;;;;;;;;;;;;;;5103499;28;4553;-57
2023/08/16 02:10:08;;;;;;;;;;;;;;;;;;5093332;28;1643;-57
2023/08/16 02:12:34;;;;;;;;;;;;;;;;;;5094141;28;5279;-56
2023/08/16 02:14:59;;;;;;;;;;;;;;;;;;5096091;28;4445;-56
2023/08/16 02:17:24;;;;;;;;;;;;;;;;;;5094404;28;5012;-56
2023/08/16 02:19:49;;;;;;;;;;;;;;;;;;5094464;28;5253;-57
2023/08/16 02:22:14;;;;;;;;;;;;;;;;;;5103099;28;1197;-57
2023/08/16 02:24:40;;;;;;;;;;;;;;;;;;5094232;28;4576;-57
2023/08/16 02:27:05;;;;;;;;;;;;;;;;;;5097757;28;4836;-57
2023/08/16 02:29:30;;;;;;;;;;;;;;;;;;5091150;28;5298;-57
2023/08/16 02:31:55;;;;;;;;;;;;;;;;;;5087550;28;5153;-57
2023/08/16 02:34:21;;;;;;;;;;;;;;;;;;5091525;28;5157;-56
2023/08/16 02:36:46;;;;;;;;;;;;;;;;;;5100309;28;1269;-56
2023/08/16 02:39:11;;;;;;;;;;;;;;;;;;5093503;28;5013;-57
2023/08/16 02:41:36;;;;;;;;;;;;;;;;;;5099850;28;5062;-57
2023/08/16 02:44:02;;;;;;;;;;;;;;;;;;5086528;28;4982;-56
2023/08/16 02:46:27;;;;;;;;;;;;;;;;;;5094911;28;4969;-56
2023/08/16 02:48:52;;;;;;;;;;;;;;;;;;5087986;28;1187;-57
2023/08/16 02:51:17;;;;;;;;;;;;;;;;;;5100137;28;4991;-57
2023/08/16 02:53:43;;;;;;;;;;;;;;;;;;5097670;28;4613;-56
2023/08/16 02:56:08;;;;;;;;;;;;;;;;;;5080333;28;5197;-56
2023/08/16 02:58:33;;;;;;;;;;;;;;;;;;5105911;28;5070;-57
2023/08/16 03:00:58;;;;;;;;;;;;;;;;;;5104855;28;1126;-58
2023/08/16 03:03:24;;;;;;;;;;;;;;;;;;5104646;28;5114;-57
2023/08/16 03:05:49;;;;;;;;;;;;;;;;;;5098558;28;4439;-57
2023/08/16 03:08:14;;;;;;;;;;;;;;;;;;5099457;28;5147;-57
2023/08/16 03:10:39;;;;;;;;;;;;;;;;;;5105088;28;5088;-57
2023/08/16 03:13:05;;;;;;;;;;;;;;;;;;5097682;28;1182;-57
2023/08/16 03:15:30;;;;;;;;;;;;;;;;;;5095507;28;4472;-57
2023/08/16 03:17:55;;;;;;;;;;;;;;;;;;5100381;28;4595;-57
2023/08/16 03:20:21;;;;;;;;;;;;;;;;;;5095238;28;5076;-57
2023/08/16 03:22:46;;;;;;;;;;;;;;;;;;5099596;28;5041;-57
2023/08/16 03:25:12;;;;;;;;;;;;;;;;;;5095514;28;1971;-57
2023/08/16 03:27:38;;;;;;;;;;;;;;;;;;5098486;28;4834;-57
2023/08/16 03:30:03;;;;;;;;;;;;;;;;;;5104794;28;5067;-58
2023/08/16 03:32:28;;;;;;;;;;;;;;;;;;5094030;28;5192;-57
2023/08/16 03:34:54;;;;;;;;;;;;;;;;;;5098870;28;5184;-57
2023/08/16 03:37:19;;;;;;;;;;;;;;;;;;5100824;28;5121;-58
2023/08/16 03:39:44;;;;;;;;;;;;;;;;;;5097571;28;1145;-57
2023/08/16 03:42:09;;;;;;;;;;;;;;;;;;5098127;28;5087;-56
2023/08/16 03:44:35;;;;;;;;;;;;;;;;;;5102190;28;4500;-57
2023/08/16 03:47:00;;;;;;;;;;;;;;;;;;5088760;28;5048;-58
2023/08/16 03:49:25;;;;;;;;;;;;;;;;;;5089899;28;4961;-57
2023/08/16 03:51:51;;;;;;;;;;;;;;;;;;5082963;28;1349;-58
2023/08/16 03:54:16;;;;;;;;;;;;;;;;;;5070996;28;4923;-57
2023/08/16 03:56:41;;;;;;;;;;;;;;;;;;5091379;28;4848;-57
2023/08/16 03:59:07;;;;;;;;;;;;;;;;;;5098702;28;5040;-58
2023/08/16 04:01:32;;;;;;;;;;;;;;;;;;5103324;28;5178;-57
2023/08/16 04:03:57;;;;;;;;;;;;;;;;;;5076316;28;2344;-57
2023/08/16 04:06:23;;;;;;;;;;;;;;;;;;5104140;28;4448;-57
2023/08/16 04:08:48;;;;;;;;;;;;;;;;;;5096521;28;4628;-57
2023/08/16 04:11:13;;;;;;;;;;;;;;;;;;5102341;28;4871;-57
2023/08/16 04:13:38;;;;;;;;;;;;;;;;;;5101643;28;5036;-56
2023/08/16 04:16:04;;;;;;;;;;;;;;;;;;5095330;28;1704;-56
2023/08/16 04:18:29;;;;;;;;;;;;;;;;;;5090269;28;5020;-57
2023/08/16 04:20:55;;;;;;;;;;;;;;;;;;5105435;28;5300;-57
2023/08/16 04:23:20;;;;;;;;;;;;;;;;;;5095347;28;4740;-56
2023/08/16 04:25:46;;;;;;;;;;;;;;;;;;5100707;28;5021;-57
2023/08/16 04:28:11;;;;;;;;;;;;;;;;;;5099939;28;1151;-56
2023/08/16 04:30:36;;;;;;;;;;;;;;;;;;5100899;28;5074;-57
2023/08/16 04:33:01;;;;;;;;;;;;;;;;;;5095181;28;5079;-57
2023/08/16 04:35:27;;;;;;;;;;;;;;;;;;5096841;28;5046;-57
2023/08/16 04:37:52;;;;;;;;;;;;;;;;;;5095419;28;4472;-58
2023/08/16 04:40:17;;;;;;;;;;;;;;;;;;5095153;28;4884;-57
2023/08/16 04:42:42;;;;;;;;;;;;;;;;;;5100730;28;1080;-57
2023/08/16 04:45:08;;;;;;;;;;;;;;;;;;5093107;28;4997;-56
2023/08/16 04:47:34;;;;;;;;;;;;;;;;;;5093233;28;4881;-57
2023/08/16 04:49:59;;;;;;;;;;;;;;;;;;5096564;28;4986;-57
2023/08/16 04:52:24;;;;;;;;;;;;;;;;;;5096639;28;5079;-57
2023/08/16 04:54:49;;;;;;;;;;;;;;;;;;5091527;28;4667;-57
2023/08/16 04:57:15;;;;;;;;;;;;;;;;;;5081927;28;5192;-57
2023/08/16 04:59:40;;;;;;;;;;;;;;;;;;5098077;28;5458;-56
2023/08/16 05:02:05;;;;;;;;;;;;;;;;;;5100080;28;4985;-57
2023/08/16 05:04:30;;;;;;;;;;;;;;;;;;5101544;28;5001;-57
2023/08/16 05:06:56;;;;;;;;;;;;;;;;;;5097552;28;1292;-58
2023/08/16 05:09:22;;;;;;;;;;;;;;;;;;5096263;28;5150;-57
2023/08/16 05:11:47;;;;;;;;;;;;;;;;;;5098573;28;5089;-57
2023/08/16 05:14:12;;;;;;;;;;;;;;;;;;5096217;28;5035;-57
2023/08/16 05:16:37;;;;;;;;;;;;;;;;;;5087390;28;4442;-57
2023/08/16 05:19:03;;;;;;;;;;;;;;;;;;5103257;28;1041;-57
2023/08/16 05:21:28;;;;;;;;;;;;;;;;;;5096166;28;4857;-57
2023/08/16 05:23:53;;;;;;;;;;;;;;;;;;5097126;28;5250;-57
2023/08/16 05:26:19;;;;;;;;;;;;;;;;;;5097766;28;5438;-58
2023/08/16 05:28:44;;;;;;;;;;;;;;;;;;5087673;28;5315;-57
2023/08/16 05:31:09;;;;;;;;;;;;;;;;;;5087473;28;3279;-61
2023/08/16 05:33:35;;;;;;;;;;;;;;;;;;5101092;27;5023;-64
2023/08/16 05:36:00;;;;;;;;;;;;;;;;;;5068805;28;4812;-60
2023/08/16 05:38:25;;;;;;;;;;;;;;;;;;5078956;28;5112;-57
2023/08/16 05:40:51;;;;;;;;;;;;;;;;;;5083129;28;4796;-58
2023/08/16 05:43:16;;;;;;;;;;;;;;;;;;5079896;28;3442;-59
2023/08/16 05:45:41;;;;;;;;;;;;;;;;;;5094010;28;4914;-57
2023/08/16 05:48:06;;;;;;;;;;;;;;;;;;5087776;28;5092;-58
2023/08/16 05:50:34;;;;;;;;;;;;;;;;;;5095582;28;5043;-57
2023/08/16 05:52:59;;;;;;;;;;;;;;;;;;5085333;28;5267;-58
2023/08/16 05:55:24;;;;;;;;;;;;;;;;;;5070371;28;5307;-57
2023/08/16 05:57:49;;;;;;;;;;;;;;;;;;5068294;28;1254;-58
2023/08/16 06:00:15;;;;;;;;;;;;;;;;;;5075901;28;5066;-60
2023/08/16 06:02:40;;;;;;;;;;;;;;;;;;5076244;28;5089;-58
2023/08/16 06:05:06;;;;;;;;;;;;;;;;;;5076133;28;5179;-57
2023/08/16 06:07:31;;;;;;;;;;;;;;;;;;5073984;28;5101;-58
2023/08/16 06:09:57;;;;;;;;;;;;;;;;;;5068249;28;1136;-55
2023/08/16 06:12:22;;;;;;;;;;;;;;;;;;5069199;28;4987;-56
2023/08/16 06:14:47;;;;;;;;;;;;;;;;;;5072874;28;5062;-57
2023/08/16 06:17:12;;;;;;;;;;;;;;;;;;5075599;28;5055;-58
2023/08/16 06:19:38;;;;;;;;;;;;;;;;;;5070270;28;5021;-56
2023/08/16 06:22:03;;;;;;;;;;;;;;;;;;5073815;28;3296;-57
2023/08/16 06:24:33;;;;;;;;;;;;;;;;;;5058316;28;5084;-56
2023/08/16 06:26:58;;;;;;;;;;;;;;;;;;5065452;28;5089;-56
2023/08/16 06:29:23;;;;;;;;;;;;;;;;;;5065941;28;5087;-57
2023/08/16 06:31:48;;;;;;;;;;;;;;;;;;5047029;28;4631;-60
2023/08/16 06:34:14;;;;;;;;;;;;;;;;;;5067502;28;1251;-58
2023/08/16 06:36:40;;;;;;;;;;;;;;;;;;5066463;28;4950;-56
2023/08/16 06:39:06;;;;;;;;;;;;;;;;;;5064683;28;5017;-57
2023/08/16 06:41:32;;;;;;;;;;;;;;;;;;5057317;28;5111;-57
2023/08/16 06:43:57;;;;;;;;;;;;;;;;;;5065242;28;5158;-59
2023/08/16 06:46:22;;;;;;;;;;;;;;;;;;5065455;28;4573;-58
2023/08/16 06:48:48;;;;;;;;;;;;;;;;;;5062363;28;3214;-57
2023/08/16 06:51:13;;;;;;;;;;;;;;;;;;5063707;28;4540;-60
2023/08/16 06:53:40;;;;;;;;;;;;;;;;;;5080336;28;4838;-60
2023/08/16 06:56:05;;;;;;;;;;;;;;;;;;5086249;28;5582;-59
2023/08/16 06:58:31;;;;;;;;;;;;;;;;;;5082585;28;5001;-61
2023/08/16 07:00:56;;;;;;;;;;;;;;;;;;5081740;28;1459;-59
2023/08/16 07:03:21;;;;;;;;;;;;;;;;;;5081352;28;5170;-58
2023/08/16 07:05:47;;;;;;;;;;;;;;;;;;5084835;28;4600;-58
2023/08/16 07:08:12;;;;;;;;;;;;;;;;;;5070808;28;4470;-58
2023/08/16 07:10:37;;;;;;;;;;;;;;;;;;5082526;28;5113;-58
2023/08/16 07:13:03;;;;;;;;;;;;;;;;;;5084685;28;2187;-61
2023/08/16 07:15:28;;;;;;;;;;;;;;;;;;5068064;28;5123;-57
2023/08/16 07:17:53;;;;;;;;;;;;;;;;;;5087184;28;4900;-56
2023/08/16 07:20:18;;;;;;;;;;;;;;;;;;5083646;28;5169;-59
2023/08/16 07:22:44;;;;;;;;;;;;;;;;;;5087328;28;4651;-59
2023/08/16 07:25:10;;;;;;;;;;;;;;;;;;5088474;28;1914;-58
2023/08/16 07:27:35;;;;;;;;;;;;;;;;;;5087163;28;5049;-57
2023/08/16 07:30:01;;;;;;;;;;;;;;;;;;5100362;28;4482;-57
2023/08/16 07:32:26;;;;;;;;;;;;;;;;;;5087147;28;4857;-59
2023/08/16 07:34:51;;;;;;;;;;;;;;;;;;5071018;28;4663;-57
2023/08/16 07:37:18;;;;;;;;;;;;;;;;;;5087914;28;4981;-56
2023/08/16 07:39:44;;;;;;;;;;;;;;;;;;5081726;28;3940;-56
2023/08/16 07:42:09;;;;;;;;;;;;;;;;;;5084907;28;5052;-58
2023/08/16 07:44:34;;;;;;;;;;;;;;;;;;5087325;28;5641;-61
2023/08/16 07:47:00;;;;;;;;;;;;;;;;;;5065272;28;4473;-61
2023/08/16 07:49:26;;;;;;;;;;;;;;;;;;5085523;28;5303;-55
2023/08/16 07:51:51;;;;;;;;;;;;;;;;;;5083284;28;3259;-56
2023/08/16 07:54:16;;;;;;;;;;;;;;;;;;5082921;28;4978;-58
2023/08/16 07:56:41;;;;;;;;;;;;;;;;;;5086468;28;5003;-56
2023/08/16 07:59:07;;;;;;;;;;;;;;;;;;5086907;28;4518;-52
2023/08/16 08:01:32;;;;;;;;;;;;;;;;;;5068315;28;5147;-56
2023/08/16 08:03:57;;;;;;;;;;;;;;;;;;5082637;28;3377;-57
2023/08/16 08:06:22;;;;;;;;;;;;;;;;;;5085227;28;5015;-56
2023/08/16 08:08:48;;;;;;;;;;;;;;;;;;5086106;28;5188;-56
2023/08/16 08:11:14;;;;;;;;;;;;;;;;;;5084778;28;5088;-56
2023/08/16 08:13:39;;;;;;;;;;;;;;;;;;5085076;28;4703;-56
2023/08/16 08:16:04;;;;;;;;;;;;;;;;;;5086259;28;3224;-56
2023/08/16 08:18:30;;;;;;;;;;;;;;;;;;5087115;28;4874;-56
2023/08/16 08:20:55;;;;;;;;;;;;;;;;;;5087072;28;5024;-56
2023/08/16 08:23:21;;;;;;;;;;;;;;;;;;5086995;28;5113;-57
2023/08/16 08:25:47;;;;;;;;;;;;;;;;;;5084624;28;4906;-55
2023/08/16 08:28:12;;;;;;;;;;;;;;;;;;5088935;28;1064;-56
2023/08/16 08:30:37;;;;;;;;;;;;;;;;;;5082593;28;4620;-55
2023/08/16 08:33:03;;;;;;;;;;;;;;;;;;5089332;28;4878;-55
2023/08/16 08:35:28;;;;;;;;;;;;;;;;;;5086538;28;4489;-56
2023/08/16 08:37:53;;;;;;;;;;;;;;;;;;5067875;28;5082;-56
2023/08/16 08:40:19;;;;;;;;;;;;;;;;;;5086618;28;4756;-56
2023/08/16 08:42:47;;;;;;;;;;;;;;;;;;5083341;28;3189;-56
2023/08/16 08:45:13;;;;;;;;;;;;;;;;;;5083487;28;4923;-55
2023/08/16 08:47:38;;;;;;;;;;;;;;;;;;5083020;28;5284;-57
2023/08/16 08:50:04;;;;;;;;;;;;;;;;;;5086038;28;5136;-56
2023/08/16 08:52:29;;;;;;;;;;;;;;;;;;5079168;28;5158;-56
2023/08/16 08:54:55;;;;;;;;;;;;;;;;;;5047262;28;4862;-56
2023/08/16 08:57:20;;;;;;;;;;;;;;;;;;5068511;28;5234;-54
2023/08/16 08:59:49;;;;;;;;;;;;;;;;;;5054489;28;4867;-55
2023/08/16 09:02:14;;;;;;;;;;;;;;;;;;5047141;28;4632;-55
2023/08/16 09:04:40;;;;;;;;;;;;;;;;;;5043467;28;4500;-55
2023/08/16 09:07:05;;;;;;;;;;;;;;;;;;5048198;28;3324;-55
2023/08/16 09:09:30;;;;;;;;;;;;;;;;;;5057309;28;5074;-56
2023/08/16 09:11:55;;;;;;;;;;;;;;;;;;5066622;28;4730;-55
2023/08/16 09:14:21;;;;;;;;;;;;;;;;;;5060329;28;5128;-56
2023/08/16 09:16:46;;;;;;;;;;;;;;;;;;5062227;28;4533;-56
2023/08/16 09:19:14;;;;;;;;;;;;;;;;;;5064735;28;1140;-57
2023/08/16 09:21:41;;;;;;;;;;;;;;;;;;5064724;28;4554;-57
2023/08/16 09:24:06;;;;;;;;;;;;;;;;;;5063670;28;5101;-57
2023/08/16 09:26:31;;;;;;;;;;;;;;;;;;5066203;28;5727;-56
2023/08/16 09:29:00;;;;;;;;;;;;;;;;;;5064267;28;5213;-56
2023/08/16 09:31:26;;;;;;;;;;;;;;;;;;5046424;28;4702;-56
2023/08/16 09:33:55;;;;;;;;;;;;;;;;;;5064400;28;3222;-57
2023/08/16 09:36:20;;;;;;;;;;;;;;;;;;5063665;28;5141;-56
2023/08/16 09:38:46;;;;;;;;;;;;;;;;;;5058462;28;4606;-56
2023/08/16 09:41:14;;;;;;;;;;;;;;;;;;5060347;28;6018;-55
2023/08/16 09:43:39;;;;;;;;;;;;;;;;;;5063872;28;5460;-57
2023/08/16 09:46:04;;;;;;;;;;;;;;;;;;5064285;28;2176;-56
2023/08/16 09:48:29;;;;;;;;;;;;;;;;;;5074694;28;5046;-57
2023/08/16 09:51:04;;;;;;;;;;;;;;;;;;5043658;28;5023;-54
2023/08/16 09:53:29;;;;;;;;;;;;;;;;;;5062299;28;5104;-56
2023/08/16 09:55:55;;;;;;;;;;;;;;;;;;5044404;28;5000;-55
2023/08/16 09:58:20;;;;;;;;;;;;;;;;;;5041393;28;4631;-56
2023/08/16 10:00:47;;;;;;;;;;;;;;;;;;5034940;28;3509;-55
2023/08/16 10:03:12;;;;;;;;;;;;;;;;;;5007506;28;5080;-55
2023/08/16 10:05:37;;;;;;;;;;;;;;;;;;5040827;28;5148;-53
2023/08/16 10:08:05;;;;;;;;;;;;;;;;;;5041524;28;4494;-56
2023/08/16 10:10:30;;;;;;;;;;;;;;;;;;5046184;28;4500;-54
2023/08/16 10:12:55;;;;;;;;;;;;;;;;;;5047779;28;1247;-54
2023/08/16 10:15:21;;;;;;;;;;;;;;;;;;5042953;28;5028;-58
2023/08/16 10:17:46;;;;;;;;;;;;;;;;;;5060107;28;4938;-58
2023/08/16 10:20:30;;;;;;;;;;;;;;;;;;5032753;28;5162;-58
2023/08/16 10:22:57;;;;;;;;;;;;;;;;;;5045414;28;5258;-57
2023/08/16 10:25:24;;;;;;;;;;;;;;;;;;5028003;28;5265;-57
2023/08/16 10:27:50;;;;;;;;;;;;;;;;;;5045405;28;1116;-57
2023/08/16 10:30:19;;;;;;;;;;;;;;;;;;5045038;28;4564;-56
2023/08/16 10:32:45;;;;;;;;;;;;;;;;;;5044898;28;5050;-57
2023/08/16 10:35:10;;;;;;;;;;;;;;;;;;5057159;28;5045;-56
2023/08/16 10:37:35;;;;;;;;;;;;;;;;;;5048022;28;5035;-56
2023/08/16 10:40:01;;;;;;;;;;;;;;;;;;5057227;28;1318;-56
2023/08/16 10:42:26;;;;;;;;;;;;;;;;;;5062474;28;4522;-54
2023/08/16 10:44:52;;;;;;;;;;;;;;;;;;5048807;28;5039;-56
2023/08/16 10:47:29;;;;;;;;;;;;;;;;;;5046643;28;4622;-56
2023/08/16 10:49:55;;;;;;;;;;;;;;;;;;5047314;28;4475;-55
2023/08/16 10:52:27;;;;;;;;;;;;;;;;;;5055758;28;4912;-57
2023/08/16 10:54:52;;;;;;;;;;;;;;;;;;5082139;28;4990;-56
2023/08/16 10:57:22;;;;;;;;;;;;;;;;;;5089881;28;4517;-56
2023/08/16 10:59:48;;;;;;;;;;;;;;;;;;5090241;28;4953;-59
2023/08/16 11:02:17;;;;;;;;;;;;;;;;;;5088091;28;4658;-61
2023/08/16 11:04:43;;;;;;;;;;;;;;;;;;5089871;28;4890;-60
2023/08/16 11:07:09;;;;;;;;;;;;;;;;;;5086753;28;1262;-59
2023/08/16 11:09:37;;;;;;;;;;;;;;;;;;5087228;28;4960;-56
2023/08/16 11:12:06;;;;;;;;;;;;;;;;;;5081614;28;4606;-56
2023/08/16 11:14:35;;;;;;;;;;;;;;;;;;5086160;28;5396;-58
2023/08/16 11:17:02;;;;;;;;;;;;;;;;;;5085850;28;5057;-59
2023/08/16 11:19:27;;;;;;;;;;;;;;;;;;5089307;28;4435;-59
2023/08/16 11:21:52;;;;;;;;;;;;;;;;;;5064836;28;1796;-59
2023/08/16 11:24:18;;;;;;;;;;;;;;;;;;5089364;28;4745;-59
2023/08/16 11:26:43;;;;;;;;;;;;;;;;;;5089325;28;5970;-58
2023/08/16 11:29:08;;;;;;;;;;;;;;;;;;5087459;28;5065;-59
2023/08/16 11:31:34;;;;;;;;;;;;;;;;;;5089795;28;5104;-61
2023/08/16 11:34:00;;;;;;;;;;;;;;;;;;5089507;28;2694;-60
2023/08/16 11:36:25;;;;;;;;;;;;;;;;;;5081021;28;4947;-61
2023/08/16 11:38:51;;;;;;;;;;;;;;;;;;5085365;28;5038;-61
2023/08/16 11:41:19;;;;;;;;;;;;;;;;;;5089588;28;4870;-62
2023/08/16 11:43:44;;;;;;;;;;;;;;;;;;5089367;28;4608;-63
2023/08/16 11:46:09;;;;;;;;;;;;;;;;;;5089418;28;1906;-61
2023/08/16 11:48:35;;;;;;;;;;;;;;;;;;5079836;28;4373;-62
2023/08/16 11:51:00;;;;;;;;;;;;;;;;;;5084793;28;4996;-61
2023/08/16 11:53:32;;;;;;;;;;;;;;;;;;5091912;28;4502;-61
2023/08/16 11:56:01;;;;;;;;;;;;;;;;;;5084349;28;5864;-60
2023/08/16 11:58:26;;;;;;;;;;;;;;;;;;5084406;28;4881;-59
2023/08/16 12:00:51;;;;;;;;;;;;;;;;;;5088381;28;1197;-59
2023/08/16 12:03:17;;;;;;;;;;;;;;;;;;5084214;28;5080;-59
2023/08/16 12:05:42;;;;;;;;;;;;;;;;;;5088089;28;5062;-60
2023/08/16 12:08:08;;;;;;;;;;;;;;;;;;5082329;28;4925;-58
2023/08/16 12:10:33;;;;;;;;;;;;;;;;;;5088706;28;4450;-59
2023/08/16 12:12:59;;;;;;;;;;;;;;;;;;5088230;28;2294;-61
2023/08/16 12:15:25;;;;;;;;;;;;;;;;;;5085230;28;4435;-59
2023/08/16 12:17:55;;;;;;;;;;;;;;;;;;5069717;28;4947;-59
2023/08/16 12:20:20;;;;;;;;;;;;;;;;;;5067528;28;5379;-58
2023/08/16 12:22:45;;;;;;;;;;;;;;;;;;5081317;28;5137;-58
2023/08/16 12:25:11;;;;;;;;;;;;;;;;;;5088711;28;3227;-58
2023/08/16 12:27:36;;;;;;;;;;;;;;;;;;5085263;28;5843;-59
2023/08/16 12:30:04;;;;;;;;;;;;;;;;;;5087875;28;5276;-59
2023/08/16 12:32:29;;;;;;;;;;;;;;;;;;5084412;28;5067;-60
2023/08/16 12:34:55;;;;;;;;;;;;;;;;;;5087912;28;5092;-60
2023/08/16 12:37:20;;;;;;;;;;;;;;;;;;5087031;28;5082;-59
2023/08/16 12:39:45;;;;;;;;;;;;;;;;;;5085215;28;3313;-58
2023/08/16 12:42:10;;;;;;;;;;;;;;;;;;5072691;28;4490;-58
2023/08/16 12:44:36;;;;;;;;;;;;;;;;;;5067967;28;5444;-60
2023/08/16 12:47:01;;;;;;;;;;;;;;;;;;5081539;28;5043;-58
2023/08/16 12:49:26;;;;;;;;;;;;;;;;;;5085154;28;5073;-58
2023/08/16 12:51:51;;;;;;;;;;;;;;;;;;5080138;28;1155;-59
2023/08/16 12:54:17;;;;;;;;;;;;;;;;;;5087554;28;4962;-62
2023/08/16 12:56:42;;;;;;;;;;;;;;;;;;5082493;28;5556;-60
2023/08/16 12:59:08;;;;;;;;;;;;;;;;;;5077415;28;4481;-62
2023/08/16 13:01:33;;;;;;;;;;;;;;;;;;5078616;28;4997;-61
2023/08/16 13:03:59;;;;;;;;;;;;;;;;;;5076360;28;3575;-61
2023/08/16 13:06:24;;;;;;;;;;;;;;;;;;5077904;28;5059;-59
2023/08/16 13:08:50;;;;;;;;;;;;;;;;;;5085102;28;5022;-60
2023/08/16 13:11:16;;;;;;;;;;;;;;;;;;5081439;28;4625;-66
2023/08/16 13:13:41;;;;;;;;;;;;;;;;;;5081805;28;4869;-64
2023/08/16 13:16:07;;;;;;;;;;;;;;;;;;5082125;28;3281;-65
2023/08/16 13:18:33;;;;;;;;;;;;;;;;;;5077628;28;4982;-65
2023/08/16 13:20:59;;;;;;;;;;;;;;;;;;5086368;28;5037;-67
2023/08/16 13:23:24;;;;;;;;;;;;;;;;;;5077798;28;4982;-65
2023/08/16 13:25:49;;;;;;;;;;;;;;;;;;5084117;28;5255;-65
2023/08/16 13:28:15;;;;;;;;;;;;;;;;;;5085834;28;2353;-65
2023/08/16 13:30:40;;;;;;;;;;;;;;;;;;5085646;28;4907;-63
2023/08/16 13:33:07;;;;;;;;;;;;;;;;;;5085593;28;4631;-65
2023/08/16 13:35:33;;;;;;;;;;;;;;;;;;5060549;28;5323;-66
2023/08/16 13:37:58;;;;;;;;;;;;;;;;;;5087067;28;4433;-66
2023/08/16 13:40:23;;;;;;;;;;;;;;;;;;5090991;28;6282;-66
2023/08/16 13:42:48;;;;;;;;;;;;;;;;;;5076246;28;3515;-67
2023/08/16 13:45:14;;;;;;;;;;;;;;;;;;5079789;28;5069;-66
2023/08/16 13:47:39;;;;;;;;;;;;;;;;;;5076815;28;4487;-67
2023/08/16 13:50:04;;;;;;;;;;;;;;;;;;5085539;28;4986;-67
2023/08/16 13:52:30;;;;;;;;;;;;;;;;;;5086638;28;4503;-67
2023/08/16 13:54:55;;;;;;;;;;;;;;;;;;5083396;28;4781;-68
2023/08/16 13:57:20;;;;;;;;;;;;;;;;;;5084478;28;4664;-66
2023/08/16 13:59:46;;;;;;;;;;;;;;;;;;5082732;28;5065;-62
2023/08/16 14:02:11;;;;;;;;;;;;;;;;;;5087619;28;5089;-62
2023/08/16 14:04:36;;;;;;;;;;;;;;;;;;5083641;28;5155;-62
2023/08/16 14:07:02;;;;;;;;;;;;;;;;;;5074551;28;3234;-63
2023/08/16 14:09:27;;;;;;;;;;;;;;;;;;5084995;28;4988;-60
2023/08/16 14:11:52;;;;;;;;;;;;;;;;;;5080573;28;5165;-63
2023/08/16 14:14:17;;;;;;;;;;;;;;;;;;5078531;28;4980;-64
2023/08/16 14:16:43;;;;;;;;;;;;;;;;;;5077685;28;4969;-63
2023/08/16 14:19:08;;;;;;;;;;;;;;;;;;5079366;28;3274;-61
2023/08/16 14:21:34;;;;;;;;;;;;;;;;;;5074837;28;4902;-67
2023/08/16 14:23:59;;;;;;;;;;;;;;;;;;5085441;28;4971;-63
2023/08/16 14:26:24;;;;;;;;;;;;;;;;;;5070409;28;5029;-63
2023/08/16 14:28:50;;;;;;;;;;;;;;;;;;5083257;28;5059;-63
2023/08/16 14:31:15;;;;;;;;;;;;;;;;;;5086036;28;3282;-61
2023/08/16 14:33:40;;;;;;;;;;;;;;;;;;5067534;28;4801;-61
2023/08/16 14:36:06;;;;;;;;;;;;;;;;;;5085316;28;4469;-60
2023/08/16 14:38:31;;;;;;;;;;;;;;;;;;5085215;28;4765;-60
2023/08/16 14:40:56;;;;;;;;;;;;;;;;;;5085397;28;5181;-62
2023/08/16 14:43:22;;;;;;;;;;;;;;;;;;5088016;28;4923;-60
2023/08/16 14:45:47;;;;;;;;;;;;;;;;;;5093185;28;3266;-61
2023/08/16 14:48:12;;;;;;;;;;;;;;;;;;5082550;28;4448;-62
2023/08/16 14:50:37;;;;;;;;;;;;;;;;;;5085358;28;5081;-61
2023/08/16 14:53:03;;;;;;;;;;;;;;;;;;5086936;28;4516;-59
2023/08/16 14:55:29;;;;;;;;;;;;;;;;;;5088043;28;5295;-59
2023/08/16 14:58:02;;;;;;;;;;;;;;;;;;5085685;28;3490;-65
2023/08/16 15:00:27;;;;;;;;;;;;;;;;;;5088659;28;4961;-60
2023/08/16 15:02:52;;;;;;;;;;;;;;;;;;5082591;28;5345;-59
2023/08/16 15:05:18;;;;;;;;;;;;;;;;;;5070486;28;5170;-61
2023/08/16 15:07:43;;;;;;;;;;;;;;;;;;5090017;28;5226;-61
2023/08/16 15:10:09;;;;;;;;;;;;;;;;;;5086028;28;3342;-61
2023/08/16 15:12:34;;;;;;;;;;;;;;;;;;5087609;28;5125;-60
2023/08/16 15:15:00;;;;;;;;;;;;;;;;;;5086103;28;4940;-60
2023/08/16 15:17:25;;;;;;;;;;;;;;;;;;5070839;28;5072;-60
2023/08/16 15:19:51;;;;;;;;;;;;;;;;;;5082772;28;5030;-65
2023/08/16 15:22:16;;;;;;;;;;;;;;;;;;5091377;28;3041;-61
2023/08/16 15:24:41;;;;;;;;;;;;;;;;;;5090895;28;4932;-60
2023/08/16 15:27:07;;;;;;;;;;;;;;;;;;5087137;28;5432;-60
2023/08/16 15:29:32;;;;;;;;;;;;;;;;;;5092176;28;5154;-60
2023/08/16 15:31:57;;;;;;;;;;;;;;;;;;5088561;28;5139;-61
2023/08/16 15:34:22;;;;;;;;;;;;;;;;;;5080401;28;4718;-61
2023/08/16 15:36:48;;;;;;;;;;;;;;;;;;5081334;28;3341;-58
2023/08/16 15:39:13;;;;;;;;;;;;;;;;;;5089266;28;4525;-62
2023/08/16 15:41:38;;;;;;;;;;;;;;;;;;5088180;28;4700;-64
2023/08/16 15:44:03;;;;;;;;;;;;;;;;;;5091492;28;4637;-61
2023/08/16 15:46:29;;;;;;;;;;;;;;;;;;5091647;28;5042;-63
2023/08/16 15:48:55;;;;;;;;;;;;;;;;;;5084155;28;3179;-68
2023/08/16 15:51:20;;;;;;;;;;;;;;;;;;5091010;28;5118;-66
2023/08/16 15:53:45;;;;;;;;;;;;;;;;;;5092598;28;5052;-60
2023/08/16 15:56:10;;;;;;;;;;;;;;;;;;5097879;28;4973;-62
2023/08/16 15:58:36;;;;;;;;;;;;;;;;;;5102326;28;4644;-61
2023/08/16 16:01:01;;;;;;;;;;;;;;;;;;5081789;28;1483;-59
2023/08/16 16:03:27;;;;;;;;;;;;;;;;;;5100107;28;4982;-58
2023/08/16 16:05:52;;;;;;;;;;;;;;;;;;5075430;28;4645;-59
2023/08/16 16:08:18;;;;;;;;;;;;;;;;;;5085738;28;4939;-63
2023/08/16 16:10:43;;;;;;;;;;;;;;;;;;5091389;28;5531;-62
2023/08/16 16:13:08;;;;;;;;;;;;;;;;;;5097502;28;1949;-60
2023/08/16 16:15:34;;;;;;;;;;;;;;;;;;5092764;28;4962;-62
2023/08/16 16:17:59;;;;;;;;;;;;;;;;;;5088729;28;5072;-62
2023/08/16 16:20:24;;;;;;;;;;;;;;;;;;5092717;28;5164;-61
2023/08/16 16:22:49;;;;;;;;;;;;;;;;;;5096365;28;4615;-63
2023/08/16 16:25:15;;;;;;;;;;;;;;;;;;5099797;28;1910;-61
2023/08/16 16:27:40;;;;;;;;;;;;;;;;;;5101306;28;5401;-59
2023/08/16 16:30:06;;;;;;;;;;;;;;;;;;5096311;28;4501;-59
2023/08/16 16:32:31;;;;;;;;;;;;;;;;;;5088097;28;5126;-60
2023/08/16 16:34:56;;;;;;;;;;;;;;;;;;5098616;28;5045;-60
2023/08/16 16:37:21;;;;;;;;;;;;;;;;;;5094782;28;5058;-60
2023/08/16 16:39:47;;;;;;;;;;;;;;;;;;5096526;28;1295;-60
2023/08/16 16:42:12;;;;;;;;;;;;;;;;;;5097879;28;5108;-60
2023/08/16 16:44:38;;;;;;;;;;;;;;;;;;5085629;28;4695;-60
2023/08/16 16:47:03;;;;;;;;;;;;;;;;;;5095370;28;5024;-64
2023/08/16 16:49:28;;;;;;;;;;;;;;;;;;5089411;28;5045;-64
2023/08/16 16:51:55;;;;;;;;;;;;;;;;;;5089648;28;3380;-61